sensor_id;sensor_type;location;lat;lon;timestamp;temperature;humidity
298;DHT22;133;49.626;9.680;2023-03-01T00:00:20;0.90;80.00
298;DHT22;133;49.626;9.680;2023-03-01T00:02:46;0.80;80.30
298;DHT22;133;49.626;9.680;2023-03-01T00:05:11;0.80;80.40
298;DHT22;133;49.626;9.680;2023-03-01T00:07:37;0.90;80.30
298;DHT22;133;49.626;9.680;2023-03-01T00:10:03;0.90;80.30
298;DHT22;133;49.626;9.680;2023-03-01T00:12:29;0.80;80.40
298;DHT22;133;49.626;9.680;2023-03-01T00:14:56;0.90;80.40
298;DHT22;133;49.626;9.680;2023-03-01T00:17:21;0.90;80.20
298;DHT22;133;49.626;9.680;2023-03-01T00:19:47;0.90;80.20
298;DHT22;133;49.626;9.680;2023-03-01T00:22:13;0.80;80.30
298;DHT22;133;49.626;9.680;2023-03-01T00:24:38;0.80;80.20
298;DHT22;133;49.626;9.680;2023-03-01T00:27:04;0.80;80.20
298;DHT22;133;49.626;9.680;2023-03-01T00:29:29;0.80;80.20
298;DHT22;133;49.626;9.680;2023-03-01T00:31:55;0.80;80.20
298;DHT22;133;49.626;9.680;2023-03-01T00:34:20;0.80;80.30
298;DHT22;133;49.626;9.680;2023-03-01T00:36:46;0.80;80.30
298;DHT22;133;49.626;9.680;2023-03-01T00:39:14;0.70;80.40
298;DHT22;133;49.626;9.680;2023-03-01T00:41:40;0.80;80.50
298;DHT22;133;49.626;9.680;2023-03-01T00:44:06;0.80;80.30
298;DHT22;133;49.626;9.680;2023-03-01T00:46:32;0.80;80.40
298;DHT22;133;49.626;9.680;2023-03-01T00:48:59;0.80;80.40
298;DHT22;133;49.626;9.680;2023-03-01T00:51:27;0.80;80.40
298;DHT22;133;49.626;9.680;2023-03-01T00:53:55;0.80;80.60
298;DHT22;133;49.626;9.680;2023-03-01T00:56:22;0.80;80.60
298;DHT22;133;49.626;9.680;2023-03-01T00:58:48;0.80;80.70
298;DHT22;133;49.626;9.680;2023-03-01T01:01:20;0.80;80.60
298;DHT22;133;49.626;9.680;2023-03-01T01:03:47;0.70;80.70
298;DHT22;133;49.626;9.680;2023-03-01T01:06:20;0.70;80.70
298;DHT22;133;49.626;9.680;2023-03-01T01:08:47;0.80;80.50
298;DHT22;133;49.626;9.680;2023-03-01T01:11:13;0.70;80.80
298;DHT22;133;49.626;9.680;2023-03-01T01:13:39;0.70;80.60
298;DHT22;133;49.626;9.680;2023-03-01T01:16:06;0.70;80.60
298;DHT22;133;49.626;9.680;2023-03-01T01:18:32;0.70;80.80
298;DHT22;133;49.626;9.680;2023-03-01T01:21:07;0.70;80.80
298;DHT22;133;49.626;9.680;2023-03-01T01:23:33;0.70;80.50
298;DHT22;133;49.626;9.680;2023-03-01T01:26:04;0.60;80.50
298;DHT22;133;49.626;9.680;2023-03-01T01:28:30;0.60;80.70
298;DHT22;133;49.626;9.680;2023-03-01T01:30:55;0.60;80.90
298;DHT22;133;49.626;9.680;2023-03-01T01:33:21;0.60;80.90
298;DHT22;133;49.626;9.680;2023-03-01T01:35:46;0.60;80.90
298;DHT22;133;49.626;9.680;2023-03-01T01:38:12;0.60;80.90
298;DHT22;133;49.626;9.680;2023-03-01T01:40:45;0.60;81.10
298;DHT22;133;49.626;9.680;2023-03-01T01:43:23;0.60;81.50
298;DHT22;133;49.626;9.680;2023-03-01T01:45:50;0.60;81.40
298;DHT22;133;49.626;9.680;2023-03-01T01:48:22;0.60;81.30
298;DHT22;133;49.626;9.680;2023-03-01T01:50:59;0.50;81.30
298;DHT22;133;49.626;9.680;2023-03-01T01:53:26;0.50;81.50
298;DHT22;133;49.626;9.680;2023-03-01T01:55:56;0.50;81.40
298;DHT22;133;49.626;9.680;2023-03-01T01:58:25;0.40;81.60
298;DHT22;133;49.626;9.680;2023-03-01T02:00:53;0.40;81.50
298;DHT22;133;49.626;9.680;2023-03-01T02:03:23;0.40;81.30
298;DHT22;133;49.626;9.680;2023-03-01T02:05:55;0.40;81.50
298;DHT22;133;49.626;9.680;2023-03-01T02:08:25;0.40;81.40
298;DHT22;133;49.626;9.680;2023-03-01T02:10:52;0.40;81.70
298;DHT22;133;49.626;9.680;2023-03-01T02:13:18;0.30;81.90
298;DHT22;133;49.626;9.680;2023-03-01T02:15:43;0.30;81.90
298;DHT22;133;49.626;9.680;2023-03-01T02:18:12;0.30;82.10
298;DHT22;133;49.626;9.680;2023-03-01T02:21:04;0.20;82.40
298;DHT22;133;49.626;9.680;2023-03-01T02:23:31;0.20;82.60
298;DHT22;133;49.626;9.680;2023-03-01T02:26:36;0.20;82.80
298;DHT22;133;49.626;9.680;2023-03-01T02:29:03;0.10;83.00
298;DHT22;133;49.626;9.680;2023-03-01T02:31:31;0.10;82.70
298;DHT22;133;49.626;9.680;2023-03-01T02:34:13;0.10;82.60
298;DHT22;133;49.626;9.680;2023-03-01T02:36:43;0.10;82.70
298;DHT22;133;49.626;9.680;2023-03-01T02:39:15;0.10;82.60
298;DHT22;133;49.626;9.680;2023-03-01T02:41:48;0.10;82.80
298;DHT22;133;49.626;9.680;2023-03-01T02:44:15;0.10;82.80
298;DHT22;133;49.626;9.680;2023-03-01T02:46:47;0.10;82.50
298;DHT22;133;49.626;9.680;2023-03-01T02:49:33;0.10;82.80
298;DHT22;133;49.626;9.680;2023-03-01T02:52:30;0.10;82.70
298;DHT22;133;49.626;9.680;2023-03-01T02:55:06;0.00;83.20
298;DHT22;133;49.626;9.680;2023-03-01T02:57:35;0.00;83.10
298;DHT22;133;49.626;9.680;2023-03-01T03:00:08;-0.10;83.50
298;DHT22;133;49.626;9.680;2023-03-01T03:02:35;-0.10;83.80
298;DHT22;133;49.626;9.680;2023-03-01T03:05:16;-0.10;83.50
298;DHT22;133;49.626;9.680;2023-03-01T03:07:44;-0.10;83.60
298;DHT22;133;49.626;9.680;2023-03-01T03:10:17;-0.20;83.50
298;DHT22;133;49.626;9.680;2023-03-01T03:12:48;-0.10;83.20
298;DHT22;133;49.626;9.680;2023-03-01T03:15:14;-0.10;83.40
298;DHT22;133;49.626;9.680;2023-03-01T03:17:41;-0.10;83.30
298;DHT22;133;49.626;9.680;2023-03-01T03:20:08;-0.10;83.10
298;DHT22;133;49.626;9.680;2023-03-01T03:22:38;-0.10;83.10
298;DHT22;133;49.626;9.680;2023-03-01T03:25:05;-0.10;83.00
298;DHT22;133;49.626;9.680;2023-03-01T03:27:38;-0.10;83.10
298;DHT22;133;49.626;9.680;2023-03-01T03:30:07;-0.10;82.90
298;DHT22;133;49.626;9.680;2023-03-01T03:32:38;-0.10;82.50
298;DHT22;133;49.626;9.680;2023-03-01T03:35:06;-0.10;82.60
298;DHT22;133;49.626;9.680;2023-03-01T03:37:43;-0.10;82.90
298;DHT22;133;49.626;9.680;2023-03-01T03:40:38;-0.20;83.50
298;DHT22;133;49.626;9.680;2023-03-01T03:43:13;-0.20;83.60
298;DHT22;133;49.626;9.680;2023-03-01T03:45:39;-0.10;83.70
298;DHT22;133;49.626;9.680;2023-03-01T03:48:07;-0.10;83.50
298;DHT22;133;49.626;9.680;2023-03-01T03:50:33;-0.10;83.20
298;DHT22;133;49.626;9.680;2023-03-01T03:53:04;-0.10;83.20
298;DHT22;133;49.626;9.680;2023-03-01T03:55:30;-0.10;83.30
298;DHT22;133;49.626;9.680;2023-03-01T03:57:58;-0.20;82.80
298;DHT22;133;49.626;9.680;2023-03-01T04:00:27;-0.30;83.20
298;DHT22;133;49.626;9.680;2023-03-01T04:02:53;-0.30;83.40
298;DHT22;133;49.626;9.680;2023-03-01T04:05:21;-0.30;83.70
298;DHT22;133;49.626;9.680;2023-03-01T04:07:47;-0.40;83.80
298;DHT22;133;49.626;9.680;2023-03-01T04:10:16;-0.50;84.30
298;DHT22;133;49.626;9.680;2023-03-01T04:12:42;-0.50;84.30
298;DHT22;133;49.626;9.680;2023-03-01T04:15:11;-0.50;84.10
298;DHT22;133;49.626;9.680;2023-03-01T04:17:41;-0.50;84.30
298;DHT22;133;49.626;9.680;2023-03-01T04:20:08;-0.50;84.20
298;DHT22;133;49.626;9.680;2023-03-01T04:22:34;-0.40;83.70
298;DHT22;133;49.626;9.680;2023-03-01T04:25:00;-0.40;83.70
298;DHT22;133;49.626;9.680;2023-03-01T04:27:27;-0.40;83.90
298;DHT22;133;49.626;9.680;2023-03-01T04:29:53;-0.40;83.90
298;DHT22;133;49.626;9.680;2023-03-01T04:32:18;-0.30;84.00
298;DHT22;133;49.626;9.680;2023-03-01T04:34:44;-0.30;83.70
298;DHT22;133;49.626;9.680;2023-03-01T04:37:09;-0.40;84.30
298;DHT22;133;49.626;9.680;2023-03-01T04:39:35;-0.30;83.90
298;DHT22;133;49.626;9.680;2023-03-01T04:42:16;-0.30;83.30
298;DHT22;133;49.626;9.680;2023-03-01T04:44:42;-0.30;83.30
298;DHT22;133;49.626;9.680;2023-03-01T04:47:08;-0.30;83.20
298;DHT22;133;49.626;9.680;2023-03-01T04:49:34;-0.20;83.60
298;DHT22;133;49.626;9.680;2023-03-01T04:52:00;-0.20;83.10
298;DHT22;133;49.626;9.680;2023-03-01T04:54:28;-0.30;82.80
298;DHT22;133;49.626;9.680;2023-03-01T04:56:54;-0.40;82.50
298;DHT22;133;49.626;9.680;2023-03-01T04:59:20;-0.50;82.70
298;DHT22;133;49.626;9.680;2023-03-01T05:01:50;-0.60;83.10
298;DHT22;133;49.626;9.680;2023-03-01T05:04:15;-0.60;83.30
298;DHT22;133;49.626;9.680;2023-03-01T05:06:41;-0.60;83.30
298;DHT22;133;49.626;9.680;2023-03-01T05:09:07;-0.70;83.00
298;DHT22;133;49.626;9.680;2023-03-01T05:11:32;-0.80;83.60
298;DHT22;133;49.626;9.680;2023-03-01T05:14:03;-0.80;83.50
298;DHT22;133;49.626;9.680;2023-03-01T05:16:29;-1.00;83.90
298;DHT22;133;49.626;9.680;2023-03-01T05:18:56;-1.00;84.70
298;DHT22;133;49.626;9.680;2023-03-01T05:21:22;-1.00;84.40
298;DHT22;133;49.626;9.680;2023-03-01T05:23:48;-1.00;84.70
298;DHT22;133;49.626;9.680;2023-03-01T05:26:15;-0.90;84.70
298;DHT22;133;49.626;9.680;2023-03-01T05:28:41;-0.90;84.90
298;DHT22;133;49.626;9.680;2023-03-01T05:31:07;-0.90;84.30
298;DHT22;133;49.626;9.680;2023-03-01T05:33:36;-0.80;84.40
298;DHT22;133;49.626;9.680;2023-03-01T05:36:02;-0.90;84.50
298;DHT22;133;49.626;9.680;2023-03-01T05:38:28;-0.80;85.40
298;DHT22;133;49.626;9.680;2023-03-01T05:40:54;-0.80;84.40
298;DHT22;133;49.626;9.680;2023-03-01T05:43:19;-0.70;83.90
298;DHT22;133;49.626;9.680;2023-03-01T05:45:45;-0.70;84.30
298;DHT22;133;49.626;9.680;2023-03-01T05:48:11;-0.70;84.50
298;DHT22;133;49.626;9.680;2023-03-01T05:50:40;-0.60;84.60
298;DHT22;133;49.626;9.680;2023-03-01T05:53:13;-0.50;84.00
298;DHT22;133;49.626;9.680;2023-03-01T05:55:40;-0.60;83.30
298;DHT22;133;49.626;9.680;2023-03-01T05:58:12;-0.60;83.80
298;DHT22;133;49.626;9.680;2023-03-01T06:00:39;-0.60;83.80
298;DHT22;133;49.626;9.680;2023-03-01T06:03:05;-0.60;83.30
298;DHT22;133;49.626;9.680;2023-03-01T06:05:30;-0.70;83.50
298;DHT22;133;49.626;9.680;2023-03-01T06:07:59;-0.70;83.50
298;DHT22;133;49.626;9.680;2023-03-01T06:10:25;-0.60;84.20
298;DHT22;133;49.626;9.680;2023-03-01T06:12:50;-0.70;84.00
298;DHT22;133;49.626;9.680;2023-03-01T06:15:16;-0.60;83.60
298;DHT22;133;49.626;9.680;2023-03-01T06:17:44;-0.50;83.10
298;DHT22;133;49.626;9.680;2023-03-01T06:22:40;-0.50;83.10
298;DHT22;133;49.626;9.680;2023-03-01T06:25:07;-0.50;83.10
298;DHT22;133;49.626;9.680;2023-03-01T06:27:33;-0.60;82.90
298;DHT22;133;49.626;9.680;2023-03-01T06:29:58;-0.70;83.40
298;DHT22;133;49.626;9.680;2023-03-01T06:32:24;-0.60;82.90
298;DHT22;133;49.626;9.680;2023-03-01T06:34:50;-0.70;83.30
298;DHT22;133;49.626;9.680;2023-03-01T06:37:16;-0.70;83.30
298;DHT22;133;49.626;9.680;2023-03-01T06:39:43;-0.90;83.60
298;DHT22;133;49.626;9.680;2023-03-01T06:42:09;-0.90;84.10
298;DHT22;133;49.626;9.680;2023-03-01T06:44:35;-0.80;83.70
298;DHT22;133;49.626;9.680;2023-03-01T06:47:01;-0.80;83.80
298;DHT22;133;49.626;9.680;2023-03-01T06:49:27;-0.80;83.90
298;DHT22;133;49.626;9.680;2023-03-01T06:51:52;-0.70;83.90
298;DHT22;133;49.626;9.680;2023-03-01T06:54:18;-0.70;83.80
298;DHT22;133;49.626;9.680;2023-03-01T06:56:48;-0.70;83.50
298;DHT22;133;49.626;9.680;2023-03-01T06:59:14;-0.80;83.90
298;DHT22;133;49.626;9.680;2023-03-01T07:01:39;-0.70;84.00
298;DHT22;133;49.626;9.680;2023-03-01T07:04:05;-0.60;84.00
298;DHT22;133;49.626;9.680;2023-03-01T07:06:31;-0.50;83.80
298;DHT22;133;49.626;9.680;2023-03-01T07:08:56;-0.40;83.40
298;DHT22;133;49.626;9.680;2023-03-01T07:11:22;-0.30;83.30
298;DHT22;133;49.626;9.680;2023-03-01T07:13:48;-0.20;83.40
298;DHT22;133;49.626;9.680;2023-03-01T07:16:14;-0.10;83.40
298;DHT22;133;49.626;9.680;2023-03-01T07:18:40;0.00;82.60
298;DHT22;133;49.626;9.680;2023-03-01T07:21:07;0.00;82.10
298;DHT22;133;49.626;9.680;2023-03-01T07:23:33;-0.10;82.20
298;DHT22;133;49.626;9.680;2023-03-01T07:25:59;0.00;82.30
298;DHT22;133;49.626;9.680;2023-03-01T07:28:26;0.10;82.30
298;DHT22;133;49.626;9.680;2023-03-01T07:30:52;0.20;82.10
298;DHT22;133;49.626;9.680;2023-03-01T07:33:17;0.20;81.80
298;DHT22;133;49.626;9.680;2023-03-01T07:35:43;0.30;81.40
298;DHT22;133;49.626;9.680;2023-03-01T07:38:09;0.30;81.80
298;DHT22;133;49.626;9.680;2023-03-01T07:40:35;0.40;81.80
298;DHT22;133;49.626;9.680;2023-03-01T07:43:00;0.50;81.40
298;DHT22;133;49.626;9.680;2023-03-01T07:45:27;0.50;81.30
298;DHT22;133;49.626;9.680;2023-03-01T07:47:53;0.60;81.30
298;DHT22;133;49.626;9.680;2023-03-01T07:50:19;0.80;81.20
298;DHT22;133;49.626;9.680;2023-03-01T07:52:46;0.80;80.60
298;DHT22;133;49.626;9.680;2023-03-01T07:55:12;0.90;80.70
298;DHT22;133;49.626;9.680;2023-03-01T07:57:38;1.00;80.40
298;DHT22;133;49.626;9.680;2023-03-01T08:00:06;1.00;80.20
298;DHT22;133;49.626;9.680;2023-03-01T08:02:32;1.20;80.10
298;DHT22;133;49.626;9.680;2023-03-01T08:04:58;1.30;79.60
298;DHT22;133;49.626;9.680;2023-03-01T08:07:23;1.40;78.90
298;DHT22;133;49.626;9.680;2023-03-01T08:09:49;1.40;78.40
298;DHT22;133;49.626;9.680;2023-03-01T08:12:15;1.40;78.20
298;DHT22;133;49.626;9.680;2023-03-01T08:14:42;1.50;78.10
298;DHT22;133;49.626;9.680;2023-03-01T08:17:08;1.60;77.80
298;DHT22;133;49.626;9.680;2023-03-01T08:19:33;1.70;77.20
298;DHT22;133;49.626;9.680;2023-03-01T08:22:02;1.80;77.40
298;DHT22;133;49.626;9.680;2023-03-01T08:24:28;1.90;77.00
298;DHT22;133;49.626;9.680;2023-03-01T08:26:54;1.90;76.90
298;DHT22;133;49.626;9.680;2023-03-01T08:29:20;2.00;76.30
298;DHT22;133;49.626;9.680;2023-03-01T08:31:46;2.00;76.60
298;DHT22;133;49.626;9.680;2023-03-01T08:34:13;2.10;76.60
298;DHT22;133;49.626;9.680;2023-03-01T08:36:41;2.20;76.20
298;DHT22;133;49.626;9.680;2023-03-01T08:39:09;2.40;75.50
298;DHT22;133;49.626;9.680;2023-03-01T08:41:35;2.40;75.10
298;DHT22;133;49.626;9.680;2023-03-01T08:44:01;2.50;74.70
298;DHT22;133;49.626;9.680;2023-03-01T08:46:35;2.50;75.10
298;DHT22;133;49.626;9.680;2023-03-01T08:49:06;2.60;74.80
298;DHT22;133;49.626;9.680;2023-03-01T08:51:32;2.70;74.30
298;DHT22;133;49.626;9.680;2023-03-01T08:54:05;2.70;74.30
298;DHT22;133;49.626;9.680;2023-03-01T08:56:31;2.90;73.90
298;DHT22;133;49.626;9.680;2023-03-01T08:58:57;3.00;74.10
298;DHT22;133;49.626;9.680;2023-03-01T09:01:23;3.00;73.90
298;DHT22;133;49.626;9.680;2023-03-01T09:03:49;3.10;73.60
298;DHT22;133;49.626;9.680;2023-03-01T09:06:15;3.20;73.40
298;DHT22;133;49.626;9.680;2023-03-01T09:08:46;3.40;73.00
298;DHT22;133;49.626;9.680;2023-03-01T09:11:16;3.40;73.00
298;DHT22;133;49.626;9.680;2023-03-01T09:13:43;3.50;73.90
298;DHT22;133;49.626;9.680;2023-03-01T09:16:10;3.70;73.20
298;DHT22;133;49.626;9.680;2023-03-01T09:18:36;3.80;73.00
298;DHT22;133;49.626;9.680;2023-03-01T09:21:03;3.80;72.20
298;DHT22;133;49.626;9.680;2023-03-01T09:23:33;3.80;71.40
298;DHT22;133;49.626;9.680;2023-03-01T09:25:59;3.90;71.20
298;DHT22;133;49.626;9.680;2023-03-01T09:28:25;3.90;70.80
298;DHT22;133;49.626;9.680;2023-03-01T09:30:50;4.00;70.80
298;DHT22;133;49.626;9.680;2023-03-01T09:33:16;4.10;70.80
298;DHT22;133;49.626;9.680;2023-03-01T09:35:41;4.20;70.20
298;DHT22;133;49.626;9.680;2023-03-01T09:38:13;4.20;70.10
298;DHT22;133;49.626;9.680;2023-03-01T09:40:43;4.30;70.00
298;DHT22;133;49.626;9.680;2023-03-01T09:45:49;4.50;69.50
298;DHT22;133;49.626;9.680;2023-03-01T09:48:20;4.70;69.20
298;DHT22;133;49.626;9.680;2023-03-01T09:50:47;4.80;69.10
298;DHT22;133;49.626;9.680;2023-03-01T09:56:14;4.90;68.50
298;DHT22;133;49.626;9.680;2023-03-01T09:59:26;5.00;68.20
298;DHT22;133;49.626;9.680;2023-03-01T10:07:57;5.10;68.00
298;DHT22;133;49.626;9.680;2023-03-01T10:10:47;5.20;67.70
298;DHT22;133;49.626;9.680;2023-03-01T10:13:15;5.30;67.60
298;DHT22;133;49.626;9.680;2023-03-01T10:15:55;5.40;68.20
298;DHT22;133;49.626;9.680;2023-03-01T10:18:26;5.50;67.30
298;DHT22;133;49.626;9.680;2023-03-01T10:21:00;5.50;67.60
298;DHT22;133;49.626;9.680;2023-03-01T10:23:27;5.50;66.70
298;DHT22;133;49.626;9.680;2023-03-01T10:29:03;5.60;66.50
298;DHT22;133;49.626;9.680;2023-03-01T10:34:10;5.90;66.80
298;DHT22;133;49.626;9.680;2023-03-01T10:36:38;6.00;65.90
298;DHT22;133;49.626;9.680;2023-03-01T10:39:13;6.00;65.40
298;DHT22;133;49.626;9.680;2023-03-01T10:44:42;6.00;65.40
298;DHT22;133;49.626;9.680;2023-03-01T10:47:20;6.20;66.30
298;DHT22;133;49.626;9.680;2023-03-01T10:50:02;6.30;66.00
298;DHT22;133;49.626;9.680;2023-03-01T10:52:32;6.50;65.80
298;DHT22;133;49.626;9.680;2023-03-01T10:55:01;6.60;65.30
298;DHT22;133;49.626;9.680;2023-03-01T10:57:37;6.70;64.70
298;DHT22;133;49.626;9.680;2023-03-01T11:00:24;6.80;64.30
298;DHT22;133;49.626;9.680;2023-03-01T11:05:26;6.90;65.40
298;DHT22;133;49.626;9.680;2023-03-01T11:07:58;7.00;64.50
298;DHT22;133;49.626;9.680;2023-03-01T11:10:27;7.20;63.70
298;DHT22;133;49.626;9.680;2023-03-01T11:12:56;7.20;64.00
298;DHT22;133;49.626;9.680;2023-03-01T11:15:30;7.20;63.50
298;DHT22;133;49.626;9.680;2023-03-01T11:17:56;7.30;63.90
298;DHT22;133;49.626;9.680;2023-03-01T11:20:36;7.40;63.20
298;DHT22;133;49.626;9.680;2023-03-01T11:23:05;7.40;63.20
298;DHT22;133;49.626;9.680;2023-03-01T11:25:39;7.50;63.20
298;DHT22;133;49.626;9.680;2023-03-01T11:28:07;7.50;62.70
298;DHT22;133;49.626;9.680;2023-03-01T11:39:12;10.10;57.60
298;DHT22;133;49.626;9.680;2023-03-01T11:41:42;11.30;55.70
298;DHT22;133;49.626;9.680;2023-03-01T11:44:22;12.30;53.30
298;DHT22;133;49.626;9.680;2023-03-01T11:52:46;14.90;48.00
298;DHT22;133;49.626;9.680;2023-03-01T12:03:27;16.20;44.80
298;DHT22;133;49.626;9.680;2023-03-01T12:14:34;17.70;43.20
298;DHT22;133;49.626;9.680;2023-03-01T12:17:25;17.00;43.50
298;DHT22;133;49.626;9.680;2023-03-01T12:26:32;17.50;43.20
298;DHT22;133;49.626;9.680;2023-03-01T12:31:58;17.70;42.30
298;DHT22;133;49.626;9.680;2023-03-01T12:37:15;17.60;42.00
298;DHT22;133;49.626;9.680;2023-03-01T12:40:30;17.60;42.30
298;DHT22;133;49.626;9.680;2023-03-01T12:48:27;17.20;43.40
298;DHT22;133;49.626;9.680;2023-03-01T12:51:01;17.70;42.70
298;DHT22;133;49.626;9.680;2023-03-01T12:53:41;17.90;43.00
298;DHT22;133;49.626;9.680;2023-03-01T12:56:13;17.90;42.20
298;DHT22;133;49.626;9.680;2023-03-01T12:59:10;18.30;42.20
298;DHT22;133;49.626;9.680;2023-03-01T13:01:42;18.10;41.70
298;DHT22;133;49.626;9.680;2023-03-01T13:10:00;16.70;43.30
298;DHT22;133;49.626;9.680;2023-03-01T13:15:27;16.90;42.90
298;DHT22;133;49.626;9.680;2023-03-01T13:17:55;17.20;43.00
298;DHT22;133;49.626;9.680;2023-03-01T13:20:45;16.90;43.60
298;DHT22;133;49.626;9.680;2023-03-01T13:26:12;17.30;42.10
298;DHT22;133;49.626;9.680;2023-03-01T13:33:52;17.60;42.30
298;DHT22;133;49.626;9.680;2023-03-01T13:39:01;17.70;41.50
298;DHT22;133;49.626;9.680;2023-03-01T13:50:01;17.60;42.30
298;DHT22;133;49.626;9.680;2023-03-01T13:52:43;17.10;42.50
298;DHT22;133;49.626;9.680;2023-03-01T13:55:23;17.10;42.50
298;DHT22;133;49.626;9.680;2023-03-01T13:57:57;17.50;41.90
298;DHT22;133;49.626;9.680;2023-03-01T14:00:36;17.70;42.80
298;DHT22;133;49.626;9.680;2023-03-01T14:05:41;17.60;42.20
298;DHT22;133;49.626;9.680;2023-03-01T14:08:24;17.40;42.20
298;DHT22;133;49.626;9.680;2023-03-01T14:13:46;16.90;42.80
298;DHT22;133;49.626;9.680;2023-03-01T14:21:39;17.20;42.60
298;DHT22;133;49.626;9.680;2023-03-01T14:24:05;17.10;42.90
298;DHT22;133;49.626;9.680;2023-03-01T14:26:32;16.70;42.90
298;DHT22;133;49.626;9.680;2023-03-01T14:29:01;16.40;43.30
298;DHT22;133;49.626;9.680;2023-03-01T14:31:37;16.70;43.30
298;DHT22;133;49.626;9.680;2023-03-01T14:34:03;16.20;43.40
298;DHT22;133;49.626;9.680;2023-03-01T14:36:32;16.60;43.10
298;DHT22;133;49.626;9.680;2023-03-01T14:38:58;16.30;43.20
298;DHT22;133;49.626;9.680;2023-03-01T14:41:32;15.40;44.80
298;DHT22;133;49.626;9.680;2023-03-01T14:44:11;15.20;45.70
298;DHT22;133;49.626;9.680;2023-03-01T14:46:41;15.10;46.20
298;DHT22;133;49.626;9.680;2023-03-01T14:49:12;14.80;46.30
298;DHT22;133;49.626;9.680;2023-03-01T14:51:41;14.50;46.40
298;DHT22;133;49.626;9.680;2023-03-01T14:54:29;14.30;46.70
298;DHT22;133;49.626;9.680;2023-03-01T14:57:00;14.10;47.00
298;DHT22;133;49.626;9.680;2023-03-01T14:59:27;13.80;48.30
298;DHT22;133;49.626;9.680;2023-03-01T15:01:55;13.80;48.40
298;DHT22;133;49.626;9.680;2023-03-01T15:04:23;13.50;48.30
298;DHT22;133;49.626;9.680;2023-03-01T15:06:53;13.50;48.50
298;DHT22;133;49.626;9.680;2023-03-01T15:09:20;13.50;48.60
298;DHT22;133;49.626;9.680;2023-03-01T15:11:46;13.00;49.50
298;DHT22;133;49.626;9.680;2023-03-01T15:14:43;13.20;48.50
298;DHT22;133;49.626;9.680;2023-03-01T15:19:56;12.50;49.90
298;DHT22;133;49.626;9.680;2023-03-01T15:22:23;12.40;49.80
298;DHT22;133;49.626;9.680;2023-03-01T15:24:50;12.20;50.40
298;DHT22;133;49.626;9.680;2023-03-01T15:27:21;11.80;51.30
298;DHT22;133;49.626;9.680;2023-03-01T15:29:55;11.60;52.00
298;DHT22;133;49.626;9.680;2023-03-01T15:32:31;11.30;52.20
298;DHT22;133;49.626;9.680;2023-03-01T15:34:58;10.90;52.90
298;DHT22;133;49.626;9.680;2023-03-01T15:37:53;11.10;53.70
298;DHT22;133;49.626;9.680;2023-03-01T15:40:28;11.10;53.60
298;DHT22;133;49.626;9.680;2023-03-01T15:43:07;11.20;53.20
298;DHT22;133;49.626;9.680;2023-03-01T15:45:58;10.80;53.50
298;DHT22;133;49.626;9.680;2023-03-01T15:48:23;10.70;54.00
298;DHT22;133;49.626;9.680;2023-03-01T15:50:55;10.50;54.30
298;DHT22;133;49.626;9.680;2023-03-01T15:53:23;10.60;54.50
298;DHT22;133;49.626;9.680;2023-03-01T15:55:48;10.50;54.50
298;DHT22;133;49.626;9.680;2023-03-01T15:58:22;10.40;54.90
298;DHT22;133;49.626;9.680;2023-03-01T16:00:49;10.40;54.90
298;DHT22;133;49.626;9.680;2023-03-01T16:03:17;10.30;55.10
298;DHT22;133;49.626;9.680;2023-03-01T16:05:47;10.10;55.70
298;DHT22;133;49.626;9.680;2023-03-01T16:08:14;10.10;55.90
298;DHT22;133;49.626;9.680;2023-03-01T16:10:40;10.10;55.80
298;DHT22;133;49.626;9.680;2023-03-01T16:13:07;9.90;56.10
298;DHT22;133;49.626;9.680;2023-03-01T16:15:34;9.80;56.60
298;DHT22;133;49.626;9.680;2023-03-01T16:18:03;9.60;56.60
298;DHT22;133;49.626;9.680;2023-03-01T16:20:30;9.50;56.90
298;DHT22;133;49.626;9.680;2023-03-01T16:23:05;9.60;57.00
298;DHT22;133;49.626;9.680;2023-03-01T16:25:32;9.60;57.00
298;DHT22;133;49.626;9.680;2023-03-01T16:27:58;9.40;57.20
298;DHT22;133;49.626;9.680;2023-03-01T16:30:26;9.40;57.30
298;DHT22;133;49.626;9.680;2023-03-01T16:32:51;9.30;57.30
298;DHT22;133;49.626;9.680;2023-03-01T16:35:19;9.10;57.70
298;DHT22;133;49.626;9.680;2023-03-01T16:37:46;9.10;57.70
298;DHT22;133;49.626;9.680;2023-03-01T16:40:26;9.00;58.20
298;DHT22;133;49.626;9.680;2023-03-01T16:42:53;8.90;58.40
298;DHT22;133;49.626;9.680;2023-03-01T16:45:19;8.90;58.40
298;DHT22;133;49.626;9.680;2023-03-01T16:47:45;8.80;58.60
298;DHT22;133;49.626;9.680;2023-03-01T16:50:11;8.80;58.60
298;DHT22;133;49.626;9.680;2023-03-01T16:52:37;8.80;58.80
298;DHT22;133;49.626;9.680;2023-03-01T16:55:04;8.70;58.80
298;DHT22;133;49.626;9.680;2023-03-01T16:57:30;8.70;59.00
298;DHT22;133;49.626;9.680;2023-03-01T16:59:56;8.50;59.10
298;DHT22;133;49.626;9.680;2023-03-01T17:02:22;8.30;59.60
298;DHT22;133;49.626;9.680;2023-03-01T17:04:55;8.10;60.30
298;DHT22;133;49.626;9.680;2023-03-01T17:07:21;8.00;60.40
298;DHT22;133;49.626;9.680;2023-03-01T17:09:47;7.90;60.60
298;DHT22;133;49.626;9.680;2023-03-01T17:12:13;7.90;61.00
298;DHT22;133;49.626;9.680;2023-03-01T17:14:40;7.80;61.40
298;DHT22;133;49.626;9.680;2023-03-01T17:17:10;7.70;61.60
298;DHT22;133;49.626;9.680;2023-03-01T17:19:37;7.70;61.40
298;DHT22;133;49.626;9.680;2023-03-01T17:22:09;7.60;61.40
298;DHT22;133;49.626;9.680;2023-03-01T17:24:39;7.50;61.80
298;DHT22;133;49.626;9.680;2023-03-01T17:27:05;7.60;61.60
298;DHT22;133;49.626;9.680;2023-03-01T17:29:31;7.50;61.60
298;DHT22;133;49.626;9.680;2023-03-01T17:31:57;7.50;62.00
298;DHT22;133;49.626;9.680;2023-03-01T17:34:23;7.40;62.40
298;DHT22;133;49.626;9.680;2023-03-01T17:36:50;7.30;62.50
298;DHT22;133;49.626;9.680;2023-03-01T17:39:17;7.20;62.80
298;DHT22;133;49.626;9.680;2023-03-01T17:41:44;7.10;63.50
298;DHT22;133;49.626;9.680;2023-03-01T17:44:10;7.00;63.70
298;DHT22;133;49.626;9.680;2023-03-01T17:46:36;7.00;63.80
298;DHT22;133;49.626;9.680;2023-03-01T17:49:02;6.90;64.60
298;DHT22;133;49.626;9.680;2023-03-01T17:51:28;6.80;64.40
298;DHT22;133;49.626;9.680;2023-03-01T17:53:53;6.70;64.60
298;DHT22;133;49.626;9.680;2023-03-01T17:56:19;6.70;64.60
298;DHT22;133;49.626;9.680;2023-03-01T17:58:44;6.70;64.60
298;DHT22;133;49.626;9.680;2023-03-01T18:01:19;6.60;65.30
298;DHT22;133;49.626;9.680;2023-03-01T18:03:45;6.50;65.40
298;DHT22;133;49.626;9.680;2023-03-01T18:06:15;6.50;65.50
298;DHT22;133;49.626;9.680;2023-03-01T18:08:42;6.40;65.90
298;DHT22;133;49.626;9.680;2023-03-01T18:11:10;6.40;65.80
298;DHT22;133;49.626;9.680;2023-03-01T18:13:36;6.40;65.70
298;DHT22;133;49.626;9.680;2023-03-01T18:16:06;6.30;66.30
298;DHT22;133;49.626;9.680;2023-03-01T18:18:32;6.20;66.80
298;DHT22;133;49.626;9.680;2023-03-01T18:20:59;6.20;66.90
298;DHT22;133;49.626;9.680;2023-03-01T18:23:25;6.10;67.30
298;DHT22;133;49.626;9.680;2023-03-01T18:25:57;6.10;67.60
298;DHT22;133;49.626;9.680;2023-03-01T18:28:23;5.90;68.20
298;DHT22;133;49.626;9.680;2023-03-01T18:30:55;5.90;68.30
298;DHT22;133;49.626;9.680;2023-03-01T18:33:21;5.90;68.60
298;DHT22;133;49.626;9.680;2023-03-01T18:35:47;5.80;68.40
298;DHT22;133;49.626;9.680;2023-03-01T18:38:14;5.80;68.80
298;DHT22;133;49.626;9.680;2023-03-01T18:40:42;5.80;68.90
298;DHT22;133;49.626;9.680;2023-03-01T18:43:07;5.70;69.20
298;DHT22;133;49.626;9.680;2023-03-01T18:45:33;5.80;69.20
298;DHT22;133;49.626;9.680;2023-03-01T18:47:59;5.70;69.30
298;DHT22;133;49.626;9.680;2023-03-01T18:50:25;5.60;69.60
298;DHT22;133;49.626;9.680;2023-03-01T18:52:50;5.70;69.40